sensor_id;sensor_type;location;lat;lon;timestamp;pressure;altitude;pressure_sealevel;temperature;humidity
9695;BME280;4690;52.422;13.486;2022-12-18T00:06:19;103023.56;;;-4.43;86.24
9695;BME280;4690;52.422;13.486;2022-12-18T00:08:46;103029.66;;;-4.59;86.82
9695;BME280;4690;52.422;13.486;2022-12-18T00:11:19;103026.09;;;-4.59;87.68
9695;BME280;4690;52.422;13.486;2022-12-18T00:13:47;103030.13;;;-4.32;88.01
9695;BME280;4690;52.422;13.486;2022-12-18T00:16:19;103032.28;;;-4.02;87.07
9695;BME280;4690;52.422;13.486;2022-12-18T00:18:52;103032.13;;;-3.99;85.54
9695;BME280;4690;52.422;13.486;2022-12-18T00:21:19;103040.25;;;-4.19;85.32
9695;BME280;4690;52.422;13.486;2022-12-18T00:23:47;103037.38;;;-4.71;85.77
9695;BME280;4690;52.422;13.486;2022-12-18T00:26:26;103033.75;;;-4.70;86.78
9695;BME280;4690;52.422;13.486;2022-12-18T00:28:54;103033.25;;;-4.60;86.37
9695;BME280;4690;52.422;13.486;2022-12-18T00:31:24;103028.84;;;-4.61;86.92
9695;BME280;4690;52.422;13.486;2022-12-18T00:33:50;103025.59;;;-4.48;86.23
9695;BME280;4690;52.422;13.486;2022-12-18T00:36:19;103025.88;;;-4.36;86.30
9695;BME280;4690;52.422;13.486;2022-12-18T00:38:46;103025.56;;;-4.30;85.87
9695;BME280;4690;52.422;13.486;2022-12-18T00:41:15;103031.88;;;-4.68;85.22
9695;BME280;4690;52.422;13.486;2022-12-18T00:44:05;103027.66;;;-4.74;86.39
9695;BME280;4690;52.422;13.486;2022-12-18T00:46:31;103024.56;;;-4.65;86.43
9695;BME280;4690;52.422;13.486;2022-12-18T00:48:58;103028.25;;;-4.67;85.92
9695;BME280;4690;52.422;13.486;2022-12-18T00:51:24;103020.59;;;-4.56;86.32
9695;BME280;4690;52.422;13.486;2022-12-18T00:53:51;103019.63;;;-4.93;86.55
9695;BME280;4690;52.422;13.486;2022-12-18T00:56:17;103018.47;;;-5.06;87.39
9695;BME280;4690;52.422;13.486;2022-12-18T00:58:43;103022.44;;;-4.96;87.50
9695;BME280;4690;52.422;13.486;2022-12-18T01:01:08;103002.38;;;-4.67;87.41
9695;BME280;4690;52.422;13.486;2022-12-18T01:03:34;103001.00;;;-4.38;86.46
9695;BME280;4690;52.422;13.486;2022-12-18T01:06:09;103009.09;;;-4.58;85.64
9695;BME280;4690;52.422;13.486;2022-12-18T01:08:36;103013.00;;;-4.65;85.58
9695;BME280;4690;52.422;13.486;2022-12-18T01:11:16;103023.84;;;-4.49;86.02
9695;BME280;4690;52.422;13.486;2022-12-18T01:13:42;103019.56;;;-4.35;85.59
9695;BME280;4690;52.422;13.486;2022-12-18T01:16:12;103022.00;;;-4.11;85.60
9695;BME280;4690;52.422;13.486;2022-12-18T01:18:38;103020.72;;;-4.21;85.21
9695;BME280;4690;52.422;13.486;2022-12-18T01:21:14;103023.75;;;-4.10;84.54
9695;BME280;4690;52.422;13.486;2022-12-18T01:23:40;103028.09;;;-4.08;83.92
9695;BME280;4690;52.422;13.486;2022-12-18T01:26:14;103034.31;;;-4.07;84.13
9695;BME280;4690;52.422;13.486;2022-12-18T01:28:40;103040.47;;;-4.05;84.15
9695;BME280;4690;52.422;13.486;2022-12-18T01:31:18;103057.59;;;-4.09;83.47
9695;BME280;4690;52.422;13.486;2022-12-18T01:33:49;103048.66;;;-4.08;83.54
9695;BME280;4690;52.422;13.486;2022-12-18T01:38:43;103042.63;;;-4.13;83.69
9695;BME280;4690;52.422;13.486;2022-12-18T01:41:09;103043.50;;;-4.13;84.53
9695;BME280;4690;52.422;13.486;2022-12-18T01:43:54;103047.84;;;-4.10;84.11
9695;BME280;4690;52.422;13.486;2022-12-18T01:46:26;103046.09;;;-4.11;83.69
9695;BME280;4690;52.422;13.486;2022-12-18T01:48:59;103043.84;;;-4.01;84.11
9695;BME280;4690;52.422;13.486;2022-12-18T01:51:29;103055.09;;;-3.95;83.48
9695;BME280;4690;52.422;13.486;2022-12-18T01:53:56;103039.38;;;-3.84;83.13
9695;BME280;4690;52.422;13.486;2022-12-18T01:56:23;103041.34;;;-3.87;82.91
9695;BME280;4690;52.422;13.486;2022-12-18T01:59:02;103039.69;;;-3.90;82.30
9695;BME280;4690;52.422;13.486;2022-12-18T02:01:31;103051.84;;;-4.19;82.63
9695;BME280;4690;52.422;13.486;2022-12-18T02:04:27;103059.28;;;-4.25;83.39
9695;BME280;4690;52.422;13.486;2022-12-18T02:09:50;103058.56;;;-4.48;83.87
9695;BME280;4690;52.422;13.486;2022-12-18T02:12:22;103051.47;;;-4.30;83.84
9695;BME280;4690;52.422;13.486;2022-12-18T02:15:01;103051.91;;;-4.20;83.54
9695;BME280;4690;52.422;13.486;2022-12-18T02:17:54;103062.44;;;-4.17;83.08
9695;BME280;4690;52.422;13.486;2022-12-18T02:20:43;103068.59;;;-4.15;82.59
9695;BME280;4690;52.422;13.486;2022-12-18T02:23:36;103070.13;;;-4.66;83.82
9695;BME280;4690;52.422;13.486;2022-12-18T02:26:31;103070.78;;;-4.61;84.34
9695;BME280;4690;52.422;13.486;2022-12-18T02:29:10;103064.34;;;-4.38;84.04
9695;BME280;4690;52.422;13.486;2022-12-18T02:31:47;103064.44;;;-4.59;83.89
9695;BME280;4690;52.422;13.486;2022-12-18T02:34:16;103067.81;;;-4.55;84.06
9695;BME280;4690;52.422;13.486;2022-12-18T02:36:45;103067.97;;;-4.79;84.32
9695;BME280;4690;52.422;13.486;2022-12-18T02:39:13;103070.56;;;-4.76;84.74
9695;BME280;4690;52.422;13.486;2022-12-18T02:41:41;103077.22;;;-4.46;84.96
9695;BME280;4690;52.422;13.486;2022-12-18T02:44:11;103080.31;;;-4.37;84.56
9695;BME280;4690;52.422;13.486;2022-12-18T02:46:48;103080.31;;;-4.37;83.86
9695;BME280;4690;52.422;13.486;2022-12-18T02:49:43;103088.59;;;-4.81;84.50
9695;BME280;4690;52.422;13.486;2022-12-18T02:52:41;103098.50;;;-4.83;84.74
9695;BME280;4690;52.422;13.486;2022-12-18T03:01:30;103085.50;;;-4.71;84.75
9695;BME280;4690;52.422;13.486;2022-12-18T03:07:05;103083.88;;;-4.55;84.23
9695;BME280;4690;52.422;13.486;2022-12-18T03:09:43;103091.09;;;-4.57;83.86
9695;BME280;4690;52.422;13.486;2022-12-18T03:12:24;103090.84;;;-4.71;84.27
9695;BME280;4690;52.422;13.486;2022-12-18T03:15:08;103093.94;;;-4.81;84.82
9695;BME280;4690;52.422;13.486;2022-12-18T03:17:39;103087.84;;;-4.84;84.64
9695;BME280;4690;52.422;13.486;2022-12-18T03:20:17;103090.97;;;-5.14;85.55
9695;BME280;4690;52.422;13.486;2022-12-18T03:22:47;103088.34;;;-5.15;85.84
9695;BME280;4690;52.422;13.486;2022-12-18T03:25:18;103084.41;;;-5.27;86.52
9695;BME280;4690;52.422;13.486;2022-12-18T03:27:51;103095.94;;;-5.27;87.31
9695;BME280;4690;52.422;13.486;2022-12-18T03:30:19;103096.50;;;-4.98;86.59
9695;BME280;4690;52.422;13.486;2022-12-18T03:32:54;103107.00;;;-4.93;86.12
9695;BME280;4690;52.422;13.486;2022-12-18T03:35:34;103104.66;;;-4.81;86.41
9695;BME280;4690;52.422;13.486;2022-12-18T03:38:00;103106.91;;;-4.71;84.84
9695;BME280;4690;52.422;13.486;2022-12-18T03:40:49;103101.03;;;-4.80;85.05
9695;BME280;4690;52.422;13.486;2022-12-18T03:52:59;103092.09;;;-4.60;84.03
9695;BME280;4690;52.422;13.486;2022-12-18T03:55:30;103093.63;;;-4.54;83.77
9695;BME280;4690;52.422;13.486;2022-12-18T03:58:01;103100.06;;;-4.58;83.20
9695;BME280;4690;52.422;13.486;2022-12-18T04:00:30;103105.00;;;-4.49;83.51
9695;BME280;4690;52.422;13.486;2022-12-18T04:02:59;103097.16;;;-4.54;82.72
9695;BME280;4690;52.422;13.486;2022-12-18T04:05:28;103096.00;;;-4.67;83.16
9695;BME280;4690;52.422;13.486;2022-12-18T04:07:56;103096.25;;;-4.73;83.38
9695;BME280;4690;52.422;13.486;2022-12-18T04:10:22;103100.31;;;-4.83;83.52
9695;BME280;4690;52.422;13.486;2022-12-18T04:12:48;103099.25;;;-5.00;83.83
9695;BME280;4690;52.422;13.486;2022-12-18T04:15:14;103092.91;;;-4.97;84.44
9695;BME280;4690;52.422;13.486;2022-12-18T04:17:49;103097.25;;;-5.15;84.78
9695;BME280;4690;52.422;13.486;2022-12-18T04:20:16;103095.84;;;-5.03;85.00
9695;BME280;4690;52.422;13.486;2022-12-18T04:22:42;103109.06;;;-5.00;85.21
9695;BME280;4690;52.422;13.486;2022-12-18T04:25:12;103097.97;;;-4.91;84.78
9695;BME280;4690;52.422;13.486;2022-12-18T04:27:38;103116.25;;;-4.82;84.68
9695;BME280;4690;52.422;13.486;2022-12-18T04:30:04;103108.38;;;-4.85;84.85
9695;BME280;4690;52.422;13.486;2022-12-18T04:32:30;103110.91;;;-4.82;84.37
9695;BME280;4690;52.422;13.486;2022-12-18T04:34:56;103121.28;;;-4.74;84.08
9695;BME280;4690;52.422;13.486;2022-12-18T04:37:21;103112.19;;;-4.70;84.11
9695;BME280;4690;52.422;13.486;2022-12-18T04:39:47;103122.38;;;-4.78;84.18
9695;BME280;4690;52.422;13.486;2022-12-18T04:42:13;103123.41;;;-4.82;84.64
9695;BME280;4690;52.422;13.486;2022-12-18T04:44:38;103124.44;;;-4.85;84.91
9695;BME280;4690;52.422;13.486;2022-12-18T04:47:04;103126.63;;;-4.74;84.95
9695;BME280;4690;52.422;13.486;2022-12-18T04:49:30;103123.09;;;-4.75;84.71
9695;BME280;4690;52.422;13.486;2022-12-18T04:51:56;103129.16;;;-4.71;84.72
9695;BME280;4690;52.422;13.486;2022-12-18T04:54:21;103133.50;;;-4.68;84.36
9695;BME280;4690;52.422;13.486;2022-12-18T04:56:47;103128.22;;;-5.31;86.44
9695;BME280;4690;52.422;13.486;2022-12-18T04:59:13;103121.53;;;-5.21;86.97
9695;BME280;4690;52.422;13.486;2022-12-18T05:01:39;103127.69;;;-4.99;86.82
9695;BME280;4690;52.422;13.486;2022-12-18T05:04:05;103132.16;;;-4.79;86.46
9695;BME280;4690;52.422;13.486;2022-12-18T05:06:31;103132.31;;;-5.02;86.27
9695;BME280;4690;52.422;13.486;2022-12-18T05:08:56;103124.56;;;-4.88;86.45
9695;BME280;4690;52.422;13.486;2022-12-18T05:11:22;103124.78;;;-4.92;86.07
9695;BME280;4690;52.422;13.486;2022-12-18T05:13:49;103127.63;;;-4.77;86.40
9695;BME280;4690;52.422;13.486;2022-12-18T05:16:15;103131.94;;;-4.72;85.97
9695;BME280;4690;52.422;13.486;2022-12-18T05:18:41;103130.63;;;-4.64;85.59
9695;BME280;4690;52.422;13.486;2022-12-18T05:21:07;103129.34;;;-4.55;85.51
9695;BME280;4690;52.422;13.486;2022-12-18T05:23:37;103132.16;;;-4.58;84.59
9695;BME280;4690;52.422;13.486;2022-12-18T05:26:05;103134.44;;;-4.90;86.26
9695;BME280;4690;52.422;13.486;2022-12-18T05:28:34;103142.09;;;-4.81;86.36
9695;BME280;4690;52.422;13.486;2022-12-18T05:31:02;103141.66;;;-4.71;86.06
9695;BME280;4690;52.422;13.486;2022-12-18T05:33:32;103152.44;;;-4.53;85.74
9695;BME280;4690;52.422;13.486;2022-12-18T05:36:03;103154.16;;;-4.52;85.14
9695;BME280;4690;52.422;13.486;2022-12-18T05:38:31;103156.09;;;-4.55;84.97
9695;BME280;4690;52.422;13.486;2022-12-18T05:40:57;103155.69;;;-4.46;85.05
9695;BME280;4690;52.422;13.486;2022-12-18T05:43:25;103164.53;;;-4.44;84.76
9695;BME280;4690;52.422;13.486;2022-12-18T05:45:52;103162.75;;;-4.45;84.60
9695;BME280;4690;52.422;13.486;2022-12-18T05:48:19;103167.38;;;-4.48;84.04
9695;BME280;4690;52.422;13.486;2022-12-18T05:50:47;103170.28;;;-4.74;84.58
9695;BME280;4690;52.422;13.486;2022-12-18T05:53:16;103185.28;;;-4.69;85.34
9695;BME280;4690;52.422;13.486;2022-12-18T05:55:44;103176.69;;;-4.57;84.59
9695;BME280;4690;52.422;13.486;2022-12-18T05:58:11;103172.88;;;-4.52;84.51
9695;BME280;4690;52.422;13.486;2022-12-18T06:00:41;103176.41;;;-4.51;84.37
9695;BME280;4690;52.422;13.486;2022-12-18T06:03:09;103172.56;;;-4.64;84.30
9695;BME280;4690;52.422;13.486;2022-12-18T06:05:38;103183.75;;;-4.75;85.07
9695;BME280;4690;52.422;13.486;2022-12-18T06:08:04;103170.53;;;-4.59;84.92
9695;BME280;4690;52.422;13.486;2022-12-18T06:10:30;103172.91;;;-4.72;85.48
9695;BME280;4690;52.422;13.486;2022-12-18T06:12:56;103182.31;;;-4.63;85.58
9695;BME280;4690;52.422;13.486;2022-12-18T06:15:22;103185.59;;;-4.57;85.52
9695;BME280;4690;52.422;13.486;2022-12-18T06:17:48;103192.34;;;-4.48;85.04
9695;BME280;4690;52.422;13.486;2022-12-18T06:20:14;103196.34;;;-4.38;84.87
9695;BME280;4690;52.422;13.486;2022-12-18T06:22:39;103197.63;;;-4.46;84.49
9695;BME280;4690;52.422;13.486;2022-12-18T06:25:06;103204.19;;;-4.54;84.45
9695;BME280;4690;52.422;13.486;2022-12-18T06:27:32;103208.22;;;-4.64;84.85
9695;BME280;4690;52.422;13.486;2022-12-18T06:29:59;103207.28;;;-4.83;85.44
9695;BME280;4690;52.422;13.486;2022-12-18T06:32:28;103203.72;;;-4.63;85.83
9695;BME280;4690;52.422;13.486;2022-12-18T06:34:54;103207.34;;;-4.64;85.55
9695;BME280;4690;52.422;13.486;2022-12-18T06:37:21;103208.88;;;-4.59;85.20
9695;BME280;4690;52.422;13.486;2022-12-18T06:39:47;103205.06;;;-4.74;85.36
9695;BME280;4690;52.422;13.486;2022-12-18T06:42:13;103209.41;;;-4.91;85.85
9695;BME280;4690;52.422;13.486;2022-12-18T06:44:38;103208.41;;;-4.68;86.04
9695;BME280;4690;52.422;13.486;2022-12-18T06:47:04;103215.69;;;-4.72;85.47
9695;BME280;4690;52.422;13.486;2022-12-18T06:49:30;103219.09;;;-4.89;85.95
9695;BME280;4690;52.422;13.486;2022-12-18T06:51:56;103222.22;;;-4.79;86.23
9695;BME280;4690;52.422;13.486;2022-12-18T06:54:21;103231.63;;;-4.69;85.48
9695;BME280;4690;52.422;13.486;2022-12-18T06:56:47;103231.84;;;-4.96;86.17
9695;BME280;4690;52.422;13.486;2022-12-18T06:59:14;103239.94;;;-4.97;86.96
9695;BME280;4690;52.422;13.486;2022-12-18T07:01:40;103245.53;;;-5.03;87.24
9695;BME280;4690;52.422;13.486;2022-12-18T07:04:06;103237.69;;;-4.86;87.33
9695;BME280;4690;52.422;13.486;2022-12-18T07:06:32;103244.13;;;-4.69;86.98
9695;BME280;4690;52.422;13.486;2022-12-18T07:08:58;103240.78;;;-4.54;86.08
9695;BME280;4690;52.422;13.486;2022-12-18T07:11:24;103247.00;;;-4.54;85.16
9695;BME280;4690;52.422;13.486;2022-12-18T07:13:49;103239.19;;;-4.58;85.48
9695;BME280;4690;52.422;13.486;2022-12-18T07:16:20;103226.03;;;-4.85;85.98
9695;BME280;4690;52.422;13.486;2022-12-18T07:18:46;103224.38;;;-4.87;86.64
9695;BME280;4690;52.422;13.486;2022-12-18T07:21:18;103233.88;;;-4.80;86.39
9695;BME280;4690;52.422;13.486;2022-12-18T07:23:44;103240.78;;;-4.75;86.39
9695;BME280;4690;52.422;13.486;2022-12-18T07:26:16;103245.72;;;-4.45;85.64
9695;BME280;4690;52.422;13.486;2022-12-18T07:28:42;103252.69;;;-4.41;85.37
9695;BME280;4690;52.422;13.486;2022-12-18T07:31:12;103255.97;;;-4.55;85.51
9695;BME280;4690;52.422;13.486;2022-12-18T07:33:39;103251.00;;;-4.64;85.17
9695;BME280;4690;52.422;13.486;2022-12-18T07:36:06;103241.59;;;-4.52;85.37
9695;BME280;4690;52.422;13.486;2022-12-18T07:38:34;103245.84;;;-4.48;85.42
9695;BME280;4690;52.422;13.486;2022-12-18T07:41:06;103250.53;;;-4.33;84.66
9695;BME280;4690;52.422;13.486;2022-12-18T07:43:33;103247.59;;;-4.47;84.85
9695;BME280;4690;52.422;13.486;2022-12-18T07:45:59;103238.78;;;-4.49;84.77
9695;BME280;4690;52.422;13.486;2022-12-18T07:48:25;103240.19;;;-4.61;84.90
9695;BME280;4690;52.422;13.486;2022-12-18T07:50:51;103249.59;;;-4.72;85.73
9695;BME280;4690;52.422;13.486;2022-12-18T07:53:17;103251.88;;;-4.63;85.52
9695;BME280;4690;52.422;13.486;2022-12-18T07:55:42;103242.78;;;-4.59;85.91
9695;BME280;4690;52.422;13.486;2022-12-18T07:58:08;103251.00;;;-4.43;85.88
9695;BME280;4690;52.422;13.486;2022-12-18T08:00:34;103235.16;;;-4.28;85.06
9695;BME280;4690;52.422;13.486;2022-12-18T08:03:01;103233.94;;;-4.41;84.41
9695;BME280;4690;52.422;13.486;2022-12-18T08:05:27;103235.91;;;-4.44;84.76
9695;BME280;4690;52.422;13.486;2022-12-18T08:07:54;103237.16;;;-4.33;84.28
9695;BME280;4690;52.422;13.486;2022-12-18T08:10:20;103244.78;;;-4.44;83.98
9695;BME280;4690;52.422;13.486;2022-12-18T08:12:50;103254.81;;;-4.49;84.64
9695;BME280;4690;52.422;13.486;2022-12-18T08:15:16;103253.34;;;-4.36;84.72
9695;BME280;4690;52.422;13.486;2022-12-18T08:17:42;103251.28;;;-4.49;84.48
9695;BME280;4690;52.422;13.486;2022-12-18T08:20:08;103252.16;;;-4.49;85.34
9695;BME280;4690;52.422;13.486;2022-12-18T08:22:38;103251.41;;;-4.32;84.82
9695;BME280;4690;52.422;13.486;2022-12-18T08:25:05;103255.56;;;-4.25;84.68
9695;BME280;4690;52.422;13.486;2022-12-18T08:27:31;103252.94;;;-4.26;84.71
9695;BME280;4690;52.422;13.486;2022-12-18T08:29:57;103256.44;;;-4.24;84.97
9695;BME280;4690;52.422;13.486;2022-12-18T08:32:25;103259.53;;;-4.15;84.89
9695;BME280;4690;52.422;13.486;2022-12-18T08:34:51;103257.19;;;-4.02;84.58
9695;BME280;4690;52.422;13.486;2022-12-18T08:37:17;103257.34;;;-4.05;84.97
9695;BME280;4690;52.422;13.486;2022-12-18T08:39:43;103252.38;;;-4.14;84.01
9695;BME280;4690;52.422;13.486;2022-12-18T08:42:08;103258.63;;;-3.95;84.74
9695;BME280;4690;52.422;13.486;2022-12-18T08:44:53;103263.56;;;-4.04;85.03
9695;BME280;4690;52.422;13.486;2022-12-18T08:47:19;103273.03;;;-4.16;84.76
9695;BME280;4690;52.422;13.486;2022-12-18T08:49:44;103272.91;;;-3.94;84.82
9695;BME280;4690;52.422;13.486;2022-12-18T08:52:10;103269.72;;;-3.84;83.49
9695;BME280;4690;52.422;13.486;2022-12-18T08:54:36;103263.59;;;-3.86;83.67
9695;BME280;4690;52.422;13.486;2022-12-18T08:57:02;103270.03;;;-3.90;84.13
9695;BME280;4690;52.422;13.486;2022-12-18T08:59:28;103275.56;;;-3.74;84.30
9695;BME280;4690;52.422;13.486;2022-12-18T09:01:54;103282.84;;;-3.96;85.45
9695;BME280;4690;52.422;13.486;2022-12-18T09:04:21;103291.53;;;-3.91;85.90
9695;BME280;4690;52.422;13.486;2022-12-18T09:06:46;103298.13;;;-3.79;85.56
9695;BME280;4690;52.422;13.486;2022-12-18T09:09:12;103295.88;;;-3.70;85.14
9695;BME280;4690;52.422;13.486;2022-12-18T09:11:38;103291.38;;;-3.88;85.48
9695;BME280;4690;52.422;13.486;2022-12-18T09:14:04;103300.06;;;-3.83;85.94
9695;BME280;4690;52.422;13.486;2022-12-18T09:16:31;103298.66;;;-3.92;86.90
9695;BME280;4690;52.422;13.486;2022-12-18T09:18:58;103305.19;;;-4.18;87.65
9695;BME280;4690;52.422;13.486;2022-12-18T09:21:31;103301.28;;;-3.90;87.85
9695;BME280;4690;52.422;13.486;2022-12-18T09:23:57;103302.91;;;-3.67;87.11
9695;BME280;4690;52.422;13.486;2022-12-18T09:26:25;103310.00;;;-3.66;86.96
9695;BME280;4690;52.422;13.486;2022-12-18T09:28:51;103307.63;;;-3.53;86.52
9695;BME280;4690;52.422;13.486;2022-12-18T09:31:20;103306.63;;;-3.51;86.24
9695;BME280;4690;52.422;13.486;2022-12-18T09:33:46;103305.44;;;-3.64;86.68
9695;BME280;4690;52.422;13.486;2022-12-18T09:36:16;103312.78;;;-3.68;87.53
9695;BME280;4690;52.422;13.486;2022-12-18T09:38:43;103316.75;;;-3.39;86.92
9695;BME280;4690;52.422;13.486;2022-12-18T09:44:27;103290.03;;;-3.59;87.82
9695;BME280;4690;52.422;13.486;2022-12-18T09:50:01;103285.69;;;-3.43;87.11
9695;BME280;4690;52.422;13.486;2022-12-18T09:52:39;103280.84;;;-3.34;87.28
9695;BME280;4690;52.422;13.486;2022-12-18T09:55:24;103280.25;;;-3.22;87.20
9695;BME280;4690;52.422;13.486;2022-12-18T09:58:06;103274.56;;;-3.16;86.80
9695;BME280;4690;52.422;13.486;2022-12-18T10:00:37;103265.16;;;-3.25;87.01
9695;BME280;4690;52.422;13.486;2022-12-18T10:03:11;103257.63;;;-3.17;87.63
9695;BME280;4690;52.422;13.486;2022-12-18T10:11:32;103237.84;;;-3.33;87.52
9695;BME280;4690;52.422;13.486;2022-12-18T10:14:26;103234.53;;;-3.38;88.47
9695;BME280;4690;52.422;13.486;2022-12-18T10:19:40;103241.66;;;-3.01;87.78
9695;BME280;4690;52.422;13.486;2022-12-18T10:22:43;103243.34;;;-3.17;87.88
9695;BME280;4690;52.422;13.486;2022-12-18T10:25:47;103242.66;;;-3.03;88.32
9695;BME280;4690;52.422;13.486;2022-12-18T10:28:17;103235.75;;;-2.90;87.49
9695;BME280;4690;52.422;13.486;2022-12-18T10:30:47;103236.06;;;-2.79;86.88
9695;BME280;4690;52.422;13.486;2022-12-18T10:33:20;103236.53;;;-2.71;87.22
9695;BME280;4690;52.422;13.486;2022-12-18T10:35:52;103230.69;;;-2.61;86.83
9695;BME280;4690;52.422;13.486;2022-12-18T10:43:37;103213.72;;;-2.97;86.76
9695;BME280;4690;52.422;13.486;2022-12-18T10:51:39;103208.44;;;-2.98;86.51
9695;BME280;4690;52.422;13.486;2022-12-18T10:54:21;103210.78;;;-3.09;86.95
9695;BME280;4690;52.422;13.486;2022-12-18T10:56:48;103203.63;;;-3.09;87.75
9695;BME280;4690;52.422;13.486;2022-12-18T10:59:17;103202.75;;;-3.09;87.29
9695;BME280;4690;52.422;13.486;2022-12-18T11:01:57;103208.50;;;-2.82;87.75
9695;BME280;4690;52.422;13.486;2022-12-18T11:04:32;103198.50;;;-2.61;86.44
9695;BME280;4690;52.422;13.486;2022-12-18T11:07:07;103186.31;;;-2.51;85.97
9695;BME280;4690;52.422;13.486;2022-12-18T11:09:38;103204.03;;;-2.64;85.97
9695;BME280;4690;52.422;13.486;2022-12-18T11:12:22;103195.34;;;-2.69;85.42
9695;BME280;4690;52.422;13.486;2022-12-18T11:14:53;103191.94;;;-2.90;85.44
9695;BME280;4690;52.422;13.486;2022-12-18T11:17:31;103198.47;;;-2.96;86.39
9695;BME280;4690;52.422;13.486;2022-12-18T11:20:07;103187.03;;;-3.00;86.01
9695;BME280;4690;52.422;13.486;2022-12-18T11:23:03;103192.25;;;-2.97;86.68
9695;BME280;4690;52.422;13.486;2022-12-18T11:25:31;103194.13;;;-2.99;86.89
9695;BME280;4690;52.422;13.486;2022-12-18T11:28:25;103189.81;;;-3.01;86.65
9695;BME280;4690;52.422;13.486;2022-12-18T11:31:21;103190.91;;;-2.88;87.26
9695;BME280;4690;52.422;13.486;2022-12-18T11:34:02;103187.78;;;-2.79;86.60
9695;BME280;4690;52.422;13.486;2022-12-18T11:36:39;103188.81;;;-2.81;86.14
9695;BME280;4690;52.422;13.486;2022-12-18T11:39:34;103203.69;;;-2.93;86.24
9695;BME280;4690;52.422;13.486;2022-12-18T11:42:20;103206.47;;;-2.95;86.40
9695;BME280;4690;52.422;13.486;2022-12-18T11:45:27;103198.78;;;-3.02;87.08
9695;BME280;4690;52.422;13.486;2022-12-18T11:48:01;103192.03;;;-2.92;86.91
9695;BME280;4690;52.422;13.486;2022-12-18T11:50:51;103194.13;;;-2.99;87.62
9695;BME280;4690;52.422;13.486;2022-12-18T11:53:18;103190.84;;;-3.04;87.29
9695;BME280;4690;52.422;13.486;2022-12-18T11:56:03;103189.97;;;-2.87;88.12
9695;BME280;4690;52.422;13.486;2022-12-18T11:58:47;103198.25;;;-2.74;86.87
9695;BME280;4690;52.422;13.486;2022-12-18T12:01:25;103210.09;;;-2.96;87.48
9695;BME280;4690;52.422;13.486;2022-12-18T12:07:03;103211.34;;;-2.85;87.38
9695;BME280;4690;52.422;13.486;2022-12-18T12:18:36;103220.69;;;-2.75;86.97
9695;BME280;4690;52.422;13.486;2022-12-18T12:21:17;103218.47;;;-2.84;87.25
9695;BME280;4690;52.422;13.486;2022-12-18T12:27:11;103208.75;;;-2.52;86.41
9695;BME280;4690;52.422;13.486;2022-12-18T12:29:53;103220.84;;;-2.61;86.73
9695;BME280;4690;52.422;13.486;2022-12-18T12:32:37;103223.25;;;-2.39;86.35
9695;BME280;4690;52.422;13.486;2022-12-18T12:38:44;103232.94;;;-2.19;84.98
9695;BME280;4690;52.422;13.486;2022-12-18T12:41:21;103246.81;;;-2.11;84.42
9695;BME280;4690;52.422;13.486;2022-12-18T12:44:27;103241.28;;;-2.08;84.32
9695;BME280;4690;52.422;13.486;2022-12-18T12:47:00;103239.53;;;-2.42;84.91
9695;BME280;4690;52.422;13.486;2022-12-18T12:49:33;103237.72;;;-2.41;85.12
9695;BME280;4690;52.422;13.486;2022-12-18T12:52:07;103236.25;;;-2.31;85.26
9695;BME280;4690;52.422;13.486;2022-12-18T12:54:35;103230.50;;;-2.23;85.37
9695;BME280;4690;52.422;13.486;2022-12-18T12:57:20;103221.53;;;-2.07;84.93
9695;BME280;4690;52.422;13.486;2022-12-18T13:00:11;103216.94;;;-1.89;84.49
9695;BME280;4690;52.422;13.486;2022-12-18T13:05:43;103199.88;;;-2.04;84.08
9695;BME280;4690;52.422;13.486;2022-12-18T13:08:33;103196.66;;;-1.94;83.76
9695;BME280;4690;52.422;13.486;2022-12-18T13:11:42;103196.84;;;-1.97;83.67
9695;BME280;4690;52.422;13.486;2022-12-18T13:14:39;103187.50;;;-1.90;84.10
9695;BME280;4690;52.422;13.486;2022-12-18T13:20:13;103203.78;;;-1.93;83.29
9695;BME280;4690;52.422;13.486;2022-12-18T13:22:48;103205.94;;;-2.00;83.31
9695;BME280;4690;52.422;13.486;2022-12-18T13:25:36;103199.69;;;-2.00;83.58
9695;BME280;4690;52.422;13.486;2022-12-18T13:28:11;103192.91;;;-2.23;84.48
9695;BME280;4690;52.422;13.486;2022-12-18T13:41:01;103195.28;;;-2.35;84.38
9695;BME280;4690;52.422;13.486;2022-12-18T13:43:45;103179.50;;;-2.41;84.16
9695;BME280;4690;52.422;13.486;2022-12-18T13:46:42;103193.59;;;-2.71;85.54
9695;BME280;4690;52.422;13.486;2022-12-18T13:51:48;103183.19;;;-2.77;85.67
9695;BME280;4690;52.422;13.486;2022-12-18T13:54:36;103167.72;;;-2.72;85.66
9695;BME280;4690;52.422;13.486;2022-12-18T13:57:04;103161.63;;;-2.58;85.47
9695;BME280;4690;52.422;13.486;2022-12-18T13:59:37;103165.97;;;-2.55;85.43
9695;BME280;4690;52.422;13.486;2022-12-18T14:02:17;103179.91;;;-2.49;84.66
9695;BME280;4690;52.422;13.486;2022-12-18T14:04:46;103171.31;;;-2.55;84.89
9695;BME280;4690;52.422;13.486;2022-12-18T14:07:19;103162.72;;;-2.44;85.03
9695;BME280;4690;52.422;13.486;2022-12-18T14:09:51;103160.94;;;-2.45;85.23
9695;BME280;4690;52.422;13.486;2022-12-18T14:12:22;103146.44;;;-2.41;85.03
9695;BME280;4690;52.422;13.486;2022-12-18T14:15:31;103156.91;;;-2.37;84.89
9695;BME280;4690;52.422;13.486;2022-12-18T14:20:46;103164.31;;;-2.24;84.63
9695;BME280;4690;52.422;13.486;2022-12-18T14:23:40;103166.38;;;-2.30;84.39
9695;BME280;4690;52.422;13.486;2022-12-18T14:26:29;103153.69;;;-2.43;84.72
9695;BME280;4690;52.422;13.486;2022-12-18T14:29:01;103149.63;;;-2.35;85.12
9695;BME280;4690;52.422;13.486;2022-12-18T14:31:30;103138.31;;;-2.57;85.85
9695;BME280;4690;52.422;13.486;2022-12-18T14:33:57;103141.88;;;-2.57;85.73
9695;BME280;4690;52.422;13.486;2022-12-18T14:36:29;103129.13;;;-2.69;86.07
9695;BME280;4690;52.422;13.486;2022-12-18T14:38:59;103121.47;;;-2.77;85.54
9695;BME280;4690;52.422;13.486;2022-12-18T14:41:26;103118.91;;;-2.96;85.98
9695;BME280;4690;52.422;13.486;2022-12-18T14:43:53;103107.59;;;-3.02;86.31
9695;BME280;4690;52.422;13.486;2022-12-18T14:46:46;103113.69;;;-3.16;86.50
9695;BME280;4690;52.422;13.486;2022-12-18T14:49:31;103115.50;;;-3.17;87.21
9695;BME280;4690;52.422;13.486;2022-12-18T14:52:04;103108.47;;;-3.02;86.65
9695;BME280;4690;52.422;13.486;2022-12-18T14:54:33;103106.88;;;-2.88;85.70
9695;BME280;4690;52.422;13.486;2022-12-18T14:57:23;103108.78;;;-2.90;85.81
9695;BME280;4690;52.422;13.486;2022-12-18T14:59:50;103098.69;;;-3.03;86.29
9695;BME280;4690;52.422;13.486;2022-12-18T15:02:27;103095.53;;;-3.11;86.61